Time;durP1;ratioP1;P1;durP2;ratioP2;P2;SDS_P1;SDS_P2;PMS_P1;PMS_P2;Temp;Humidity;BMP_temperature;BMP_pressure;BME280_temperature;BME280_humidity;BME280_pressure;Samples;Min_cycle;Max_cycle;Signal;HPM_P1;HPM_P2
2023/03/18 00:01:12;;;;;;;;;;;;;;;;;;5115983;28;845;-69
2023/03/18 00:03:38;;;;;;;;;;;;;;;;;;5116033;28;848;-69
2023/03/18 00:06:11;;;;;;;;;;;;;;;;;;5114431;28;1169;-69
2023/03/18 00:08:38;;;;;;;;;;;;;;;;;;5114337;28;1304;-69
2023/03/18 00:11:04;;;;;;;;;;;;;;;;;;5116170;28;1906;-69
2023/03/18 00:13:30;;;;;;;;;;;;;;;;;;5097721;28;1312;-69
2023/03/18 00:15:55;;;;;;;;;;;;;;;;;;5115406;28;1179;-69
2023/03/18 00:18:21;;;;;;;;;;;;;;;;;;5115239;28;966;-69
2023/03/18 00:20:46;;;;;;;;;;;;;;;;;;5097567;28;1120;-69
2023/03/18 00:23:11;;;;;;;;;;;;;;;;;;5115482;28;895;-69
2023/03/18 00:25:37;;;;;;;;;;;;;;;;;;5109616;28;1250;-69
2023/03/18 00:28:05;;;;;;;;;;;;;;;;;;5104492;28;1156;-69
2023/03/18 00:30:30;;;;;;;;;;;;;;;;;;5100646;28;1215;-69
2023/03/18 00:32:56;;;;;;;;;;;;;;;;;;5111786;28;1910;-69
2023/03/18 00:35:22;;;;;;;;;;;;;;;;;;5114037;28;894;-69
2023/03/18 00:37:48;;;;;;;;;;;;;;;;;;5114303;28;876;-69
2023/03/18 00:40:19;;;;;;;;;;;;;;;;;;5114055;28;1241;-69
2023/03/18 00:42:50;;;;;;;;;;;;;;;;;;5113682;28;840;-69
2023/03/18 00:45:16;;;;;;;;;;;;;;;;;;5097664;28;1324;-69
2023/03/18 00:47:42;;;;;;;;;;;;;;;;;;5115114;28;888;-69
2023/03/18 00:50:08;;;;;;;;;;;;;;;;;;5114469;28;887;-69
2023/03/18 00:52:33;;;;;;;;;;;;;;;;;;5112983;28;1964;-69
2023/03/18 00:54:59;;;;;;;;;;;;;;;;;;5095689;28;1394;-69
2023/03/18 00:57:24;;;;;;;;;;;;;;;;;;5112698;28;1185;-69
2023/03/18 00:59:50;;;;;;;;;;;;;;;;;;5096729;28;1301;-69
2023/03/18 01:02:15;;;;;;;;;;;;;;;;;;5113066;28;1373;-69
2023/03/18 01:04:41;;;;;;;;;;;;;;;;;;5114582;28;974;-69
2023/03/18 01:07:07;;;;;;;;;;;;;;;;;;5112792;28;1400;-69
2023/03/18 01:09:33;;;;;;;;;;;;;;;;;;5113630;28;1206;-69
2023/03/18 01:11:58;;;;;;;;;;;;;;;;;;5096868;28;1989;-69
2023/03/18 01:14:23;;;;;;;;;;;;;;;;;;5113686;28;1171;-69
2023/03/18 01:16:49;;;;;;;;;;;;;;;;;;5114420;28;1207;-69
2023/03/18 01:19:14;;;;;;;;;;;;;;;;;;5112986;28;1288;-69
2023/03/18 01:21:40;;;;;;;;;;;;;;;;;;5096597;28;1249;-69
2023/03/18 01:24:05;;;;;;;;;;;;;;;;;;5113483;28;1225;-69
2023/03/18 01:26:31;;;;;;;;;;;;;;;;;;5113253;28;1154;-68
2023/03/18 01:28:57;;;;;;;;;;;;;;;;;;5096365;28;1210;-69
2023/03/18 01:31:24;;;;;;;;;;;;;;;;;;5095666;28;1972;-69
2023/03/18 01:33:49;;;;;;;;;;;;;;;;;;5112587;28;1228;-69
2023/03/18 01:36:14;;;;;;;;;;;;;;;;;;5095326;28;1253;-69
2023/03/18 01:38:41;;;;;;;;;;;;;;;;;;5095529;28;1159;-69
2023/03/18 01:41:07;;;;;;;;;;;;;;;;;;5095574;28;1278;-69
2023/03/18 01:43:33;;;;;;;;;;;;;;;;;;5095473;28;1395;-69
2023/03/18 01:45:59;;;;;;;;;;;;;;;;;;5113507;28;883;-69
2023/03/18 01:48:26;;;;;;;;;;;;;;;;;;5113986;28;867;-69
2023/03/18 01:51:00;;;;;;;;;;;;;;;;;;5112417;28;1146;-69
2023/03/18 01:53:33;;;;;;;;;;;;;;;;;;5113610;28;859;-69
2023/03/18 01:56:00;;;;;;;;;;;;;;;;;;5112053;28;1300;-69
2023/03/18 01:58:27;;;;;;;;;;;;;;;;;;5112475;28;801;-69
2023/03/18 02:00:56;;;;;;;;;;;;;;;;;;5111864;28;1114;-69
2023/03/18 02:03:22;;;;;;;;;;;;;;;;;;5112750;28;918;-68
2023/03/18 02:05:48;;;;;;;;;;;;;;;;;;5112304;28;1261;-68
2023/03/18 02:08:14;;;;;;;;;;;;;;;;;;5095500;28;1174;-68
2023/03/18 02:10:39;;;;;;;;;;;;;;;;;;5113021;28;812;-68
2023/03/18 02:13:07;;;;;;;;;;;;;;;;;;5112214;28;1959;-68
2023/03/18 02:15:33;;;;;;;;;;;;;;;;;;5112128;28;1196;-69
2023/03/18 02:17:59;;;;;;;;;;;;;;;;;;5111969;28;1353;-69
2023/03/18 02:20:33;;;;;;;;;;;;;;;;;;5112132;28;1193;-69
2023/03/18 02:23:22;;;;;;;;;;;;;;;;;;5112655;28;1150;-69
2023/03/18 02:25:47;;;;;;;;;;;;;;;;;;5107888;28;988;-69
2023/03/18 02:28:16;;;;;;;;;;;;;;;;;;5113326;28;872;-69
2023/03/18 02:30:46;;;;;;;;;;;;;;;;;;5112280;28;1293;-69
2023/03/18 02:33:13;;;;;;;;;;;;;;;;;;5113867;28;1985;-69
2023/03/18 02:35:38;;;;;;;;;;;;;;;;;;5113519;28;974;-69
2023/03/18 02:38:04;;;;;;;;;;;;;;;;;;5095221;28;1609;-69
2023/03/18 02:40:31;;;;;;;;;;;;;;;;;;5113728;28;789;-69
2023/03/18 02:43:14;;;;;;;;;;;;;;;;;;5112807;28;1316;-69
2023/03/18 02:45:54;;;;;;;;;;;;;;;;;;5113349;28;942;-69
2023/03/18 02:48:22;;;;;;;;;;;;;;;;;;5113152;28;915;-69
2023/03/18 02:50:48;;;;;;;;;;;;;;;;;;5112312;28;1146;-69
2023/03/18 02:53:14;;;;;;;;;;;;;;;;;;5111766;28;1910;-69
2023/03/18 02:55:40;;;;;;;;;;;;;;;;;;5094328;28;1273;-69
2023/03/18 02:58:06;;;;;;;;;;;;;;;;;;5113448;28;922;-68
2023/03/18 03:00:32;;;;;;;;;;;;;;;;;;5095155;28;1332;-68
2023/03/18 03:02:57;;;;;;;;;;;;;;;;;;5112987;28;954;-70
2023/03/18 03:05:22;;;;;;;;;;;;;;;;;;5111364;28;1138;-68
2023/03/18 03:07:48;;;;;;;;;;;;;;;;;;5113621;28;879;-68
2023/03/18 03:10:13;;;;;;;;;;;;;;;;;;5111921;28;1081;-68
2023/03/18 03:12:39;;;;;;;;;;;;;;;;;;5111501;28;1973;-68
2023/03/18 03:15:07;;;;;;;;;;;;;;;;;;5097797;28;1044;-68
2023/03/18 03:17:32;;;;;;;;;;;;;;;;;;5115399;28;1304;-68
2023/03/18 03:19:58;;;;;;;;;;;;;;;;;;5117227;28;832;-70
2023/03/18 03:22:23;;;;;;;;;;;;;;;;;;5116229;28;990;-68
2023/03/18 03:24:49;;;;;;;;;;;;;;;;;;5098546;28;1210;-70
2023/03/18 03:27:14;;;;;;;;;;;;;;;;;;5115236;28;793;-70
2023/03/18 03:29:39;;;;;;;;;;;;;;;;;;5097887;28;1294;-70
2023/03/18 03:32:06;;;;;;;;;;;;;;;;;;5114820;28;1913;-70
2023/03/18 03:34:32;;;;;;;;;;;;;;;;;;5097898;28;1381;-70
2023/03/18 03:36:58;;;;;;;;;;;;;;;;;;5116510;28;816;-70
2023/03/18 03:39:23;;;;;;;;;;;;;;;;;;5114958;28;852;-70
2023/03/18 03:41:48;;;;;;;;;;;;;;;;;;5116376;28;824;-70
2023/03/18 03:44:14;;;;;;;;;;;;;;;;;;5116207;28;872;-70
2023/03/18 03:46:40;;;;;;;;;;;;;;;;;;5097729;28;1294;-70
2023/03/18 03:49:05;;;;;;;;;;;;;;;;;;5115224;28;1060;-70
2023/03/18 03:51:30;;;;;;;;;;;;;;;;;;5115356;28;1968;-70
2023/03/18 03:53:56;;;;;;;;;;;;;;;;;;5114181;28;1189;-70
2023/03/18 03:56:21;;;;;;;;;;;;;;;;;;5115806;27;1042;-70
2023/03/18 03:58:47;;;;;;;;;;;;;;;;;;5115600;28;864;-70
2023/03/18 04:01:12;;;;;;;;;;;;;;;;;;5116233;28;903;-70
2023/03/18 04:03:37;;;;;;;;;;;;;;;;;;5114975;28;1197;-70
2023/03/18 04:06:03;;;;;;;;;;;;;;;;;;5097259;28;1130;-71
2023/03/18 04:08:28;;;;;;;;;;;;;;;;;;5114954;28;1193;-70
2023/03/18 04:10:53;;;;;;;;;;;;;;;;;;5115313;28;856;-70
2023/03/18 04:13:19;;;;;;;;;;;;;;;;;;5115226;28;1914;-70
2023/03/18 04:15:46;;;;;;;;;;;;;;;;;;5114089;28;1169;-70
2023/03/18 04:18:12;;;;;;;;;;;;;;;;;;5115560;28;1333;-70
2023/03/18 04:20:37;;;;;;;;;;;;;;;;;;5113988;28;1284;-70
2023/03/18 04:23:03;;;;;;;;;;;;;;;;;;5114505;28;1352;-70
2023/03/18 04:25:28;;;;;;;;;;;;;;;;;;5114593;28;1218;-70
2023/03/18 04:27:54;;;;;;;;;;;;;;;;;;5113884;28;1170;-70
2023/03/18 04:30:22;;;;;;;;;;;;;;;;;;5113972;28;1181;-70
2023/03/18 04:32:47;;;;;;;;;;;;;;;;;;5114658;28;1968;-70
2023/03/18 04:35:13;;;;;;;;;;;;;;;;;;5113328;28;1281;-70
2023/03/18 04:37:38;;;;;;;;;;;;;;;;;;5114842;28;918;-70
2023/03/18 04:40:06;;;;;;;;;;;;;;;;;;5113476;28;1197;-70
2023/03/18 04:42:32;;;;;;;;;;;;;;;;;;5113310;28;1324;-70
2023/03/18 04:44:57;;;;;;;;;;;;;;;;;;5114802;28;891;-70
2023/03/18 04:47:23;;;;;;;;;;;;;;;;;;5113406;28;1347;-69
2023/03/18 04:49:48;;;;;;;;;;;;;;;;;;5113296;28;1219;-68
2023/03/18 04:52:14;;;;;;;;;;;;;;;;;;5114132;27;1898;-69
2023/03/18 04:54:39;;;;;;;;;;;;;;;;;;5113300;28;851;-69
2023/03/18 04:57:05;;;;;;;;;;;;;;;;;;5113545;28;872;-69
2023/03/18 04:59:30;;;;;;;;;;;;;;;;;;5114101;28;863;-69
2023/03/18 05:01:56;;;;;;;;;;;;;;;;;;5112868;28;1281;-69
2023/03/18 05:04:22;;;;;;;;;;;;;;;;;;5095950;28;1171;-68
2023/03/18 05:06:48;;;;;;;;;;;;;;;;;;5112806;28;1190;-69
2023/03/18 05:09:13;;;;;;;;;;;;;;;;;;5112355;28;1402;-69
2023/03/18 05:11:38;;;;;;;;;;;;;;;;;;5112925;28;1964;-69
2023/03/18 05:14:04;;;;;;;;;;;;;;;;;;5112576;28;1286;-69
2023/03/18 05:16:29;;;;;;;;;;;;;;;;;;5113256;28;1087;-68
2023/03/18 05:18:55;;;;;;;;;;;;;;;;;;5113437;28;911;-68
2023/03/18 05:21:20;;;;;;;;;;;;;;;;;;5114390;28;816;-68
2023/03/18 05:23:45;;;;;;;;;;;;;;;;;;5112318;28;1240;-69
2023/03/18 05:26:10;;;;;;;;;;;;;;;;;;5113609;28;963;-69
2023/03/18 05:28:37;;;;;;;;;;;;;;;;;;5112523;28;1249;-69
2023/03/18 05:31:02;;;;;;;;;;;;;;;;;;5112296;28;1201;-69
2023/03/18 05:33:28;;;;;;;;;;;;;;;;;;5113456;28;1989;-69
2023/03/18 05:35:53;;;;;;;;;;;;;;;;;;5113226;28;828;-69
2023/03/18 05:38:19;;;;;;;;;;;;;;;;;;5112546;28;1281;-69
2023/03/18 05:40:44;;;;;;;;;;;;;;;;;;5113494;28;1162;-69
2023/03/18 05:43:10;;;;;;;;;;;;;;;;;;5092574;28;1190;-69
2023/03/18 05:45:36;;;;;;;;;;;;;;;;;;5093237;28;1146;-69
2023/03/18 05:48:01;;;;;;;;;;;;;;;;;;5075902;28;1231;-69
2023/03/18 05:50:29;;;;;;;;;;;;;;;;;;5087577;28;1336;-69
2023/03/18 05:52:55;;;;;;;;;;;;;;;;;;5108563;27;1886;-69
2023/03/18 05:55:20;;;;;;;;;;;;;;;;;;5093272;28;884;-69
2023/03/18 05:57:47;;;;;;;;;;;;;;;;;;5092833;28;865;-69
2023/03/18 06:00:14;;;;;;;;;;;;;;;;;;5093920;28;892;-69
2023/03/18 06:02:39;;;;;;;;;;;;;;;;;;5093166;28;1321;-69
2023/03/18 06:05:05;;;;;;;;;;;;;;;;;;5093726;28;939;-69
2023/03/18 06:07:30;;;;;;;;;;;;;;;;;;5074914;28;1293;-69
2023/03/18 06:09:56;;;;;;;;;;;;;;;;;;5093650;28;911;-68
2023/03/18 06:12:26;;;;;;;;;;;;;;;;;;5093554;28;1981;-69
2023/03/18 06:14:51;;;;;;;;;;;;;;;;;;5091695;28;1191;-69
2023/03/18 06:17:16;;;;;;;;;;;;;;;;;;5091660;28;1297;-69
2023/03/18 06:19:41;;;;;;;;;;;;;;;;;;5092350;28;892;-69
2023/03/18 06:22:07;;;;;;;;;;;;;;;;;;5093568;28;924;-69
2023/03/18 06:24:32;;;;;;;;;;;;;;;;;;5092981;28;1011;-70
2023/03/18 06:26:57;;;;;;;;;;;;;;;;;;5092024;28;801;-69
2023/03/18 06:29:22;;;;;;;;;;;;;;;;;;5091938;28;903;-69
2023/03/18 06:31:48;;;;;;;;;;;;;;;;;;5074670;28;1902;-69
2023/03/18 06:34:13;;;;;;;;;;;;;;;;;;5093093;28;828;-69
2023/03/18 06:36:39;;;;;;;;;;;;;;;;;;5092221;28;842;-69
2023/03/18 06:39:04;;;;;;;;;;;;;;;;;;5093582;28;896;-69
2023/03/18 06:41:30;;;;;;;;;;;;;;;;;;5091390;28;1284;-69
2023/03/18 06:43:55;;;;;;;;;;;;;;;;;;5093385;28;899;-69
2023/03/18 06:46:22;;;;;;;;;;;;;;;;;;5092361;28;1194;-69
2023/03/18 06:48:47;;;;;;;;;;;;;;;;;;5092219;28;841;-69
2023/03/18 06:51:13;;;;;;;;;;;;;;;;;;5097196;28;1882;-69
2023/03/18 06:53:38;;;;;;;;;;;;;;;;;;5096072;28;785;-69
2023/03/18 06:56:04;;;;;;;;;;;;;;;;;;5096252;28;1313;-69
2023/03/18 06:58:30;;;;;;;;;;;;;;;;;;5096937;28;836;-69
2023/03/18 07:00:56;;;;;;;;;;;;;;;;;;5095821;28;1166;-69
2023/03/18 07:03:21;;;;;;;;;;;;;;;;;;5096044;28;1290;-69
2023/03/18 07:05:47;;;;;;;;;;;;;;;;;;5096105;28;1131;-69
2023/03/18 07:08:14;;;;;;;;;;;;;;;;;;5097508;28;820;-69
2023/03/18 07:10:39;;;;;;;;;;;;;;;;;;5096158;28;1218;-69
2023/03/18 07:13:05;;;;;;;;;;;;;;;;;;5098016;28;1976;-69
2023/03/18 07:15:31;;;;;;;;;;;;;;;;;;5096420;28;1277;-69
2023/03/18 07:17:56;;;;;;;;;;;;;;;;;;5096438;28;1088;-69
2023/03/18 07:20:22;;;;;;;;;;;;;;;;;;5095998;28;821;-69
2023/03/18 07:22:48;;;;;;;;;;;;;;;;;;5095853;28;1268;-69
2023/03/18 07:25:13;;;;;;;;;;;;;;;;;;5097384;28;1024;-69
2023/03/18 07:27:39;;;;;;;;;;;;;;;;;;5096948;28;884;-69
2023/03/18 07:30:05;;;;;;;;;;;;;;;;;;5096251;28;904;-70
2023/03/18 07:32:30;;;;;;;;;;;;;;;;;;5094944;28;1906;-69
2023/03/18 07:34:56;;;;;;;;;;;;;;;;;;5096820;28;836;-69
2023/03/18 07:37:21;;;;;;;;;;;;;;;;;;5094903;28;1100;-69
2023/03/18 07:39:47;;;;;;;;;;;;;;;;;;5095170;28;1313;-69
2023/03/18 07:42:12;;;;;;;;;;;;;;;;;;5097113;28;836;-70
2023/03/18 07:44:38;;;;;;;;;;;;;;;;;;5095908;28;916;-71
2023/03/18 07:47:03;;;;;;;;;;;;;;;;;;5078850;28;1225;-70
2023/03/18 07:49:29;;;;;;;;;;;;;;;;;;5094781;28;975;-71
2023/03/18 07:51:55;;;;;;;;;;;;;;;;;;5094636;28;1963;-70
2023/03/18 07:54:20;;;;;;;;;;;;;;;;;;5096011;28;829;-70
2023/03/18 07:56:45;;;;;;;;;;;;;;;;;;5095006;28;1280;-71
2023/03/18 07:59:11;;;;;;;;;;;;;;;;;;5094843;28;880;-71
2023/03/18 08:01:38;;;;;;;;;;;;;;;;;;5094258;28;899;-70
2023/03/18 08:04:04;;;;;;;;;;;;;;;;;;5095021;28;848;-71
2023/03/18 08:06:30;;;;;;;;;;;;;;;;;;5076443;28;1236;-71
2023/03/18 08:08:56;;;;;;;;;;;;;;;;;;5093940;28;1182;-71
2023/03/18 08:11:21;;;;;;;;;;;;;;;;;;5093141;28;1902;-71
2023/03/18 08:13:47;;;;;;;;;;;;;;;;;;5095012;28;939;-71
2023/03/18 08:16:12;;;;;;;;;;;;;;;;;;5093969;28;1257;-71
2023/03/18 08:18:37;;;;;;;;;;;;;;;;;;5076060;28;1290;-71
2023/03/18 08:21:03;;;;;;;;;;;;;;;;;;5093724;28;1304;-72
2023/03/18 08:23:29;;;;;;;;;;;;;;;;;;5094313;28;895;-72
2023/03/18 08:25:54;;;;;;;;;;;;;;;;;;5092913;28;1159;-72
2023/03/18 08:28:19;;;;;;;;;;;;;;;;;;5076076;28;1186;-71
2023/03/18 08:30:45;;;;;;;;;;;;;;;;;;5076473;28;1354;-71
2023/03/18 08:33:11;;;;;;;;;;;;;;;;;;5075960;28;1963;-70
2023/03/18 08:35:39;;;;;;;;;;;;;;;;;;5094716;28;919;-69
2023/03/18 08:38:04;;;;;;;;;;;;;;;;;;5095166;28;896;-72
2023/03/18 08:40:29;;;;;;;;;;;;;;;;;;5095172;28;825;-71
2023/03/18 08:42:54;;;;;;;;;;;;;;;;;;5077183;28;1111;-71
2023/03/18 08:45:20;;;;;;;;;;;;;;;;;;5094051;28;981;-71
2023/03/18 08:47:45;;;;;;;;;;;;;;;;;;5094206;28;1186;-69
2023/03/18 08:50:11;;;;;;;;;;;;;;;;;;5095283;28;892;-69
2023/03/18 08:52:37;;;;;;;;;;;;;;;;;;5092973;28;1910;-68
2023/03/18 08:55:03;;;;;;;;;;;;;;;;;;5094560;28;853;-71
2023/03/18 08:57:28;;;;;;;;;;;;;;;;;;5092586;28;915;-71
2023/03/18 08:59:54;;;;;;;;;;;;;;;;;;5092245;28;868;-70
2023/03/18 09:02:19;;;;;;;;;;;;;;;;;;5092526;28;864;-70
2023/03/18 09:04:45;;;;;;;;;;;;;;;;;;5091300;28;1233;-71
2023/03/18 09:07:11;;;;;;;;;;;;;;;;;;5092911;28;836;-70
2023/03/18 09:09:37;;;;;;;;;;;;;;;;;;5074149;28;1297;-70
2023/03/18 09:12:04;;;;;;;;;;;;;;;;;;5093258;28;1906;-70
2023/03/18 09:14:29;;;;;;;;;;;;;;;;;;5092395;28;926;-71
2023/03/18 09:16:55;;;;;;;;;;;;;;;;;;5093718;28;1068;-69
2023/03/18 09:19:20;;;;;;;;;;;;;;;;;;5093503;28;896;-69
2023/03/18 09:21:45;;;;;;;;;;;;;;;;;;5092598;28;1198;-69
2023/03/18 09:24:11;;;;;;;;;;;;;;;;;;5092649;28;872;-69
2023/03/18 09:26:38;;;;;;;;;;;;;;;;;;5093747;28;945;-69
2023/03/18 09:29:03;;;;;;;;;;;;;;;;;;5091845;28;1222;-69
2023/03/18 09:31:29;;;;;;;;;;;;;;;;;;5092714;28;1967;-69
2023/03/18 09:33:55;;;;;;;;;;;;;;;;;;5091735;28;1182;-69
2023/03/18 09:36:20;;;;;;;;;;;;;;;;;;5093467;28;833;-69
2023/03/18 09:38:45;;;;;;;;;;;;;;;;;;5091358;28;1281;-69
2023/03/18 09:41:16;;;;;;;;;;;;;;;;;;5092960;28;1038;-69
2023/03/18 09:43:54;;;;;;;;;;;;;;;;;;5091291;28;1254;-69
2023/03/18 09:46:20;;;;;;;;;;;;;;;;;;5092783;28;868;-70
2023/03/18 09:49:04;;;;;;;;;;;;;;;;;;5092570;28;872;-71
2023/03/18 09:51:48;;;;;;;;;;;;;;;;;;5091814;28;1972;-68
2023/03/18 09:54:19;;;;;;;;;;;;;;;;;;5090864;28;1221;-70
2023/03/18 09:56:44;;;;;;;;;;;;;;;;;;5091235;28;1301;-71
2023/03/18 09:59:22;;;;;;;;;;;;;;;;;;5074554;28;1305;-70
2023/03/18 10:01:51;;;;;;;;;;;;;;;;;;5090955;28;1316;-70
2023/03/18 10:04:27;;;;;;;;;;;;;;;;;;5092565;28;904;-70
2023/03/18 10:06:57;;;;;;;;;;;;;;;;;;5091307;28;1214;-70
2023/03/18 10:09:37;;;;;;;;;;;;;;;;;;5091730;28;829;-69
2023/03/18 10:12:25;;;;;;;;;;;;;;;;;;5092568;28;1905;-71
2023/03/18 10:14:57;;;;;;;;;;;;;;;;;;5092901;28;1211;-68
2023/03/18 10:17:41;;;;;;;;;;;;;;;;;;5091455;28;1197;-70
2023/03/18 10:20:18;;;;;;;;;;;;;;;;;;5092118;28;1186;-70
2023/03/18 10:22:53;;;;;;;;;;;;;;;;;;5092184;28;1016;-71
2023/03/18 10:25:19;;;;;;;;;;;;;;;;;;5091217;28;1254;-71
2023/03/18 10:28:00;;;;;;;;;;;;;;;;;;5092355;28;1158;-71
2023/03/18 10:30:30;;;;;;;;;;;;;;;;;;5092973;28;884;-71
2023/03/18 10:33:07;;;;;;;;;;;;;;;;;;5091550;28;1998;-69
2023/03/18 10:35:47;;;;;;;;;;;;;;;;;;5091898;28;1098;-70
2023/03/18 10:38:13;;;;;;;;;;;;;;;;;;5091602;28;1292;-69
2023/03/18 10:40:40;;;;;;;;;;;;;;;;;;5092297;28;845;-69
2023/03/18 10:43:14;;;;;;;;;;;;;;;;;;5092825;28;821;-69
2023/03/18 10:45:40;;;;;;;;;;;;;;;;;;5092181;28;955;-69
2023/03/18 10:48:14;;;;;;;;;;;;;;;;;;5091627;28;1206;-69
2023/03/18 10:50:45;;;;;;;;;;;;;;;;;;5092409;28;907;-69
2023/03/18 10:53:10;;;;;;;;;;;;;;;;;;5092890;28;1976;-69
2023/03/18 10:55:39;;;;;;;;;;;;;;;;;;5092066;28;895;-71
2023/03/18 10:58:13;;;;;;;;;;;;;;;;;;5091763;28;1347;-69
2023/03/18 11:00:39;;;;;;;;;;;;;;;;;;5092536;28;809;-71
2023/03/18 11:03:04;;;;;;;;;;;;;;;;;;5091501;28;1116;-69
2023/03/18 11:05:32;;;;;;;;;;;;;;;;;;5092312;28;927;-71
2023/03/18 11:07:59;;;;;;;;;;;;;;;;;;5092597;28;899;-69
2023/03/18 11:10:27;;;;;;;;;;;;;;;;;;5090986;28;1187;-69
2023/03/18 11:13:02;;;;;;;;;;;;;;;;;;5092648;28;1902;-71
2023/03/18 11:15:39;;;;;;;;;;;;;;;;;;5092621;28;876;-71
2023/03/18 11:18:04;;;;;;;;;;;;;;;;;;5093055;28;1235;-71
2023/03/18 11:20:46;;;;;;;;;;;;;;;;;;5091321;28;837;-71
2023/03/18 11:24:07;;;;;;;;;;;;;;;;;;5090826;28;1292;-71
2023/03/18 11:26:43;;;;;;;;;;;;;;;;;;5091440;28;1310;-71
2023/03/18 11:29:15;;;;;;;;;;;;;;;;;;5091412;28;1186;-71
2023/03/18 11:31:48;;;;;;;;;;;;;;;;;;5091364;28;1947;-71
2023/03/18 11:34:15;;;;;;;;;;;;;;;;;;5092705;28;844;-71
2023/03/18 11:36:41;;;;;;;;;;;;;;;;;;5096411;28;853;-70
2023/03/18 11:39:11;;;;;;;;;;;;;;;;;;5097226;28;820;-71
2023/03/18 11:41:37;;;;;;;;;;;;;;;;;;5096807;28;801;-71
2023/03/18 11:44:04;;;;;;;;;;;;;;;;;;5095835;28;1185;-71
2023/03/18 11:46:34;;;;;;;;;;;;;;;;;;5095056;28;1329;-71
2023/03/18 11:49:00;;;;;;;;;;;;;;;;;;5094800;28;1325;-71
2023/03/18 11:51:34;;;;;;;;;;;;;;;;;;5096047;28;1967;-71
2023/03/18 11:54:09;;;;;;;;;;;;;;;;;;5095158;28;1268;-70
2023/03/18 11:56:40;;;;;;;;;;;;;;;;;;5094868;28;1213;-71
2023/03/18 11:59:15;;;;;;;;;;;;;;;;;;5096059;28;967;-71
2023/03/18 12:01:48;;;;;;;;;;;;;;;;;;5096088;28;867;-71
2023/03/18 12:04:20;;;;;;;;;;;;;;;;;;5095968;28;891;-71
2023/03/18 12:07:04;;;;;;;;;;;;;;;;;;5094056;28;1214;-71
2023/03/18 12:09:41;;;;;;;;;;;;;;;;;;5094085;28;1304;-69
2023/03/18 12:12:09;;;;;;;;;;;;;;;;;;5095230;28;1906;-69
2023/03/18 12:14:38;;;;;;;;;;;;;;;;;;5093786;28;1166;-69
2023/03/18 12:17:13;;;;;;;;;;;;;;;;;;5095893;28;1180;-70
2023/03/18 12:19:38;;;;;;;;;;;;;;;;;;5095656;28;875;-69
2023/03/18 12:22:22;;;;;;;;;;;;;;;;;;5094640;28;1166;-70
2023/03/18 12:25:06;;;;;;;;;;;;;;;;;;5095349;28;1032;-69
2023/03/18 12:27:35;;;;;;;;;;;;;;;;;;5093846;28;1479;-69
2023/03/18 12:30:18;;;;;;;;;;;;;;;;;;5094767;28;872;-70
2023/03/18 12:32:52;;;;;;;;;;;;;;;;;;5093397;28;1910;-70
2023/03/18 12:35:25;;;;;;;;;;;;;;;;;;5093464;28;847;-70
2023/03/18 12:37:50;;;;;;;;;;;;;;;;;;5091350;28;1190;-70
2023/03/18 12:40:18;;;;;;;;;;;;;;;;;;5093305;28;820;-70
2023/03/18 12:42:44;;;;;;;;;;;;;;;;;;5092345;28;1221;-70
2023/03/18 12:45:12;;;;;;;;;;;;;;;;;;5091951;28;1286;-70
2023/03/18 12:47:37;;;;;;;;;;;;;;;;;;5092199;28;1166;-70
2023/03/18 12:50:09;;;;;;;;;;;;;;;;;;5093324;28;1186;-70
2023/03/18 12:52:35;;;;;;;;;;;;;;;;;;5093622;28;2047;-69
2023/03/18 12:55:06;;;;;;;;;;;;;;;;;;5094302;28;869;-70
2023/03/18 12:57:38;;;;;;;;;;;;;;;;;;5093106;28;1199;-70
2023/03/18 13:00:17;;;;;;;;;;;;;;;;;;5092879;28;1249;-70
2023/03/18 13:02:42;;;;;;;;;;;;;;;;;;5092760;28;1297;-70
2023/03/18 13:05:23;;;;;;;;;;;;;;;;;;5094146;28;939;-70
2023/03/18 13:08:09;;;;;;;;;;;;;;;;;;5093087;28;1193;-70
2023/03/18 13:10:35;;;;;;;;;;;;;;;;;;5086680;28;1592;-70
2023/03/18 13:13:02;;;;;;;;;;;;;;;;;;5093708;28;1909;-70
2023/03/18 13:15:28;;;;;;;;;;;;;;;;;;5093181;28;1379;-70
2023/03/18 13:17:59;;;;;;;;;;;;;;;;;;5092986;28;1289;-70
2023/03/18 13:20:36;;;;;;;;;;;;;;;;;;5094477;28;979;-70
2023/03/18 13:23:02;;;;;;;;;;;;;;;;;;5093233;28;1210;-70
2023/03/18 13:25:30;;;;;;;;;;;;;;;;;;5092298;28;1297;-70
2023/03/18 13:28:06;;;;;;;;;;;;;;;;;;5093911;28;828;-70
2023/03/18 13:30:32;;;;;;;;;;;;;;;;;;5092899;28;1201;-70
2023/03/18 13:33:01;;;;;;;;;;;;;;;;;;5093919;28;1906;-70
2023/03/18 13:35:49;;;;;;;;;;;;;;;;;;5094226;28;825;-70
2023/03/18 13:38:17;;;;;;;;;;;;;;;;;;5092423;28;1194;-70
2023/03/18 13:40:52;;;;;;;;;;;;;;;;;;5091512;28;1202;-70
2023/03/18 13:43:19;;;;;;;;;;;;;;;;;;5092254;28;1127;-70
2023/03/18 13:45:52;;;;;;;;;;;;;;;;;;5093188;28;939;-70
2023/03/18 13:48:32;;;;;;;;;;;;;;;;;;5093207;28;947;-70
2023/03/18 13:50:58;;;;;;;;;;;;;;;;;;5093121;28;924;-70
2023/03/18 13:53:23;;;;;;;;;;;;;;;;;;5092214;28;1902;-70
2023/03/18 13:56:00;;;;;;;;;;;;;;;;;;5092066;28;1234;-70
2023/03/18 13:58:27;;;;;;;;;;;;;;;;;;5092012;28;1208;-69
2023/03/18 14:00:55;;;;;;;;;;;;;;;;;;5093373;28;793;-70
2023/03/18 14:03:21;;;;;;;;;;;;;;;;;;5092941;28;1245;-70
2023/03/18 14:05:50;;;;;;;;;;;;;;;;;;5093303;28;852;-70
2023/03/18 14:08:31;;;;;;;;;;;;;;;;;;5092650;28;1508;-70
2023/03/18 14:11:15;;;;;;;;;;;;;;;;;;5092813;28;1371;-70
2023/03/18 14:13:44;;;;;;;;;;;;;;;;;;5094358;28;1902;-70
2023/03/18 14:16:10;;;;;;;;;;;;;;;;;;5092607;28;911;-70
2023/03/18 14:18:36;;;;;;;;;;;;;;;;;;5092161;28;1247;-70
2023/03/18 14:21:04;;;;;;;;;;;;;;;;;;5092136;28;1412;-70
2023/03/18 14:23:59;;;;;;;;;;;;;;;;;;5092029;28;1177;-69
2023/03/18 14:26:28;;;;;;;;;;;;;;;;;;5093061;28;968;-68
2023/03/18 14:29:17;;;;;;;;;;;;;;;;;;5092763;28;856;-69
2023/03/18 14:31:42;;;;;;;;;;;;;;;;;;5083089;28;1918;-69
2023/03/18 14:34:16;;;;;;;;;;;;;;;;;;5093936;28;966;-70
2023/03/18 14:36:45;;;;;;;;;;;;;;;;;;5094115;28;900;-70
2023/03/18 14:39:20;;;;;;;;;;;;;;;;;;5092634;28;1170;-70
2023/03/18 14:41:50;;;;;;;;;;;;;;;;;;5093643;28;824;-70
2023/03/18 14:44:16;;;;;;;;;;;;;;;;;;5094079;28;1219;-70
2023/03/18 14:46:44;;;;;;;;;;;;;;;;;;5092420;28;1245;-69
2023/03/18 14:49:22;;;;;;;;;;;;;;;;;;5092180;28;1272;-70
2023/03/18 14:51:49;;;;;;;;;;;;;;;;;;5091934;28;1915;-71
2023/03/18 14:54:19;;;;;;;;;;;;;;;;;;5092694;28;907;-70
2023/03/18 14:56:51;;;;;;;;;;;;;;;;;;5092630;28;900;-71
2023/03/18 14:59:16;;;;;;;;;;;;;;;;;;5092173;28;1418;-71
2023/03/18 15:01:45;;;;;;;;;;;;;;;;;;5074349;28;1408;-70
2023/03/18 15:04:16;;;;;;;;;;;;;;;;;;5091704;28;1178;-71
2023/03/18 15:06:42;;;;;;;;;;;;;;;;;;5092623;28;888;-69
2023/03/18 15:09:13;;;;;;;;;;;;;;;;;;5092501;28;881;-69
2023/03/18 15:11:39;;;;;;;;;;;;;;;;;;5094918;28;1964;-69
2023/03/18 15:14:11;;;;;;;;;;;;;;;;;;5095404;28;1281;-70
2023/03/18 15:16:37;;;;;;;;;;;;;;;;;;5077757;28;1178;-70
2023/03/18 15:19:02;;;;;;;;;;;;;;;;;;5094801;28;914;-70
2023/03/18 15:21:30;;;;;;;;;;;;;;;;;;5096185;28;825;-70
2023/03/18 15:23:58;;;;;;;;;;;;;;;;;;5096342;28;903;-69
2023/03/18 15:26:27;;;;;;;;;;;;;;;;;;5096418;28;903;-71
2023/03/18 15:28:53;;;;;;;;;;;;;;;;;;5096819;28;785;-71
2023/03/18 15:31:24;;;;;;;;;;;;;;;;;;5096287;28;896;-71
2023/03/18 15:33:55;;;;;;;;;;;;;;;;;;5096004;28;1906;-71
2023/03/18 15:36:20;;;;;;;;;;;;;;;;;;5096371;28;901;-69
2023/03/18 15:38:47;;;;;;;;;;;;;;;;;;5094439;28;841;-70
2023/03/18 15:41:12;;;;;;;;;;;;;;;;;;5095948;28;833;-69
2023/03/18 15:43:45;;;;;;;;;;;;;;;;;;5095167;28;880;-69
2023/03/18 15:46:16;;;;;;;;;;;;;;;;;;5094447;28;1205;-69
2023/03/18 15:48:42;;;;;;;;;;;;;;;;;;5095709;28;860;-69
2023/03/18 15:51:23;;;;;;;;;;;;;;;;;;5095787;28;812;-69
2023/03/18 15:53:54;;;;;;;;;;;;;;;;;;5094678;28;1913;-69
2023/03/18 15:56:47;;;;;;;;;;;;;;;;;;5094342;28;1187;-69
2023/03/18 15:59:14;;;;;;;;;;;;;;;;;;5093725;28;1153;-69
2023/03/18 16:01:40;;;;;;;;;;;;;;;;;;5096002;28;872;-69
2023/03/18 16:04:09;;;;;;;;;;;;;;;;;;5094758;28;1190;-70
2023/03/18 16:06:35;;;;;;;;;;;;;;;;;;5095865;28;880;-70
2023/03/18 16:09:01;;;;;;;;;;;;;;;;;;5095348;28;836;-70
2023/03/18 16:11:27;;;;;;;;;;;;;;;;;;5095182;28;1288;-70
2023/03/18 16:13:52;;;;;;;;;;;;;;;;;;5094411;28;1886;-69
2023/03/18 16:16:25;;;;;;;;;;;;;;;;;;5094543;28;1247;-69
2023/03/18 16:18:51;;;;;;;;;;;;;;;;;;5093836;28;1277;-69
2023/03/18 16:21:17;;;;;;;;;;;;;;;;;;5094856;28;825;-70
2023/03/18 16:23:43;;;;;;;;;;;;;;;;;;5076407;28;1293;-69
2023/03/18 16:26:15;;;;;;;;;;;;;;;;;;5093397;28;1205;-70
2023/03/18 16:28:41;;;;;;;;;;;;;;;;;;5076165;28;1088;-70
2023/03/18 16:31:07;;;;;;;;;;;;;;;;;;5093514;28;1281;-69
2023/03/18 16:33:33;;;;;;;;;;;;;;;;;;5094965;28;1961;-69
2023/03/18 16:36:00;;;;;;;;;;;;;;;;;;5093085;28;1344;-70
2023/03/18 16:38:27;;;;;;;;;;;;;;;;;;5093414;28;1229;-69
2023/03/18 16:40:54;;;;;;;;;;;;;;;;;;5093623;28;1268;-69
2023/03/18 16:43:20;;;;;;;;;;;;;;;;;;5094038;28;856;-69
2023/03/18 16:45:47;;;;;;;;;;;;;;;;;;5093246;28;1261;-70
2023/03/18 16:48:15;;;;;;;;;;;;;;;;;;5092902;28;935;-69
2023/03/18 16:50:41;;;;;;;;;;;;;;;;;;5094204;28;884;-70
2023/03/18 16:53:12;;;;;;;;;;;;;;;;;;5094189;28;1957;-69
2023/03/18 16:55:38;;;;;;;;;;;;;;;;;;5092645;28;1225;-69
2023/03/18 16:58:03;;;;;;;;;;;;;;;;;;5092795;28;1361;-69
2023/03/18 17:00:32;;;;;;;;;;;;;;;;;;5092802;28;1282;-69
2023/03/18 17:02:59;;;;;;;;;;;;;;;;;;5092463;28;1170;-69
2023/03/18 17:05:24;;;;;;;;;;;;;;;;;;5092909;28;1002;-69
2023/03/18 17:07:49;;;;;;;;;;;;;;;;;;5092333;28;1356;-69
2023/03/18 17:10:19;;;;;;;;;;;;;;;;;;5094068;28;982;-69
2023/03/18 17:12:49;;;;;;;;;;;;;;;;;;5092108;28;1930;-69
2023/03/18 17:15:16;;;;;;;;;;;;;;;;;;5092738;28;1173;-69
2023/03/18 17:17:42;;;;;;;;;;;;;;;;;;5093788;28;1199;-69